createdAt,value
2023-03-13T00:00:23.628Z,10.71
2023-03-13T00:01:23.345Z,10.73
2023-03-13T00:02:23.505Z,10.73
2023-03-13T00:03:23.308Z,10.76
2023-03-13T00:04:23.299Z,10.77
2023-03-13T00:05:23.348Z,10.77
2023-03-13T00:06:23.291Z,10.80
2023-03-13T00:07:23.277Z,10.77
2023-03-13T00:08:23.316Z,10.76
2023-03-13T00:09:23.257Z,10.76
2023-03-13T00:10:23.248Z,10.73
2023-03-13T00:11:23.237Z,10.76
2023-03-13T00:12:23.205Z,10.76
2023-03-13T00:13:23.492Z,10.74
2023-03-13T00:14:23.246Z,10.74
2023-03-13T00:15:23.190Z,10.71
2023-03-13T00:16:23.289Z,10.74
2023-03-13T00:17:23.163Z,10.77
2023-03-13T00:18:23.164Z,10.80
2023-03-13T00:19:23.153Z,10.80
2023-03-13T00:20:23.462Z,10.78
2023-03-13T00:21:23.144Z,10.78
2023-03-13T00:22:23.112Z,10.78
2023-03-13T00:23:23.099Z,10.77
2023-03-13T00:24:23.089Z,10.76
2023-03-13T00:25:23.101Z,10.74
2023-03-13T00:26:23.109Z,10.76
2023-03-13T00:27:23.354Z,10.74
2023-03-13T00:28:23.062Z,10.74
2023-03-13T00:29:23.045Z,10.77
2023-03-13T00:30:23.024Z,10.76
2023-03-13T00:31:23.227Z,10.76
2023-03-13T00:32:23.104Z,10.76
2023-03-13T00:33:23.006Z,10.74
2023-03-13T00:34:23.296Z,10.74
2023-03-13T00:35:23.085Z,10.74
2023-03-13T00:36:22.972Z,10.74
2023-03-13T00:37:22.959Z,10.76
2023-03-13T00:38:22.969Z,10.76
2023-03-13T00:39:22.921Z,10.76
2023-03-13T00:40:22.937Z,10.77
2023-03-13T00:41:23.190Z,10.78
2023-03-13T00:42:22.892Z,10.78
2023-03-13T00:43:22.898Z,10.78
2023-03-13T00:44:22.924Z,10.76
2023-03-13T00:45:22.884Z,10.77
2023-03-13T00:46:23.077Z,10.77
2023-03-13T00:47:22.866Z,10.74
2023-03-13T00:48:23.120Z,10.71
2023-03-13T00:49:22.853Z,10.65
2023-03-13T00:50:22.871Z,10.59
2023-03-13T00:51:22.799Z,10.55
2023-03-13T00:52:22.790Z,10.51
2023-03-13T00:53:22.784Z,10.44
2023-03-13T00:54:22.786Z,10.39
2023-03-13T00:55:23.048Z,10.36
2023-03-13T00:56:22.806Z,10.32
2023-03-13T00:57:22.762Z,10.28
2023-03-13T00:58:22.748Z,10.25
2023-03-13T00:59:22.728Z,10.25
2023-03-13T01:00:22.714Z,10.24
2023-03-13T01:01:22.747Z,10.21
2023-03-13T01:02:23.254Z,10.17
2023-03-13T01:03:22.876Z,10.14
2023-03-13T01:04:22.685Z,10.10
2023-03-13T01:05:22.981Z,10.10
2023-03-13T01:06:22.673Z,10.04
2023-03-13T01:07:22.664Z,10.00
2023-03-13T01:08:22.687Z,10.03
2023-03-13T01:09:22.924Z,10.07
2023-03-13T01:10:22.607Z,10.01
2023-03-13T01:11:22.610Z,9.99
2023-03-13T01:12:22.612Z,9.94
2023-03-13T01:13:22.593Z,9.96
2023-03-13T01:14:22.620Z,9.96
2023-03-13T01:15:22.566Z,9.94
2023-03-13T01:16:22.680Z,9.93
2023-03-13T01:17:22.570Z,9.94
2023-03-13T01:18:22.568Z,9.88
2023-03-13T01:19:22.533Z,9.86
2023-03-13T01:20:22.584Z,9.82
2023-03-13T01:21:22.513Z,9.81
2023-03-13T01:22:22.764Z,9.78
2023-03-13T01:23:22.494Z,9.76
2023-03-13T01:24:22.471Z,9.71
2023-03-13T01:25:22.468Z,9.68
2023-03-13T01:26:22.484Z,9.67
2023-03-13T01:27:22.459Z,9.66
2023-03-13T01:28:22.426Z,9.63
2023-03-13T01:29:22.443Z,9.64
2023-03-13T01:30:22.403Z,9.66
2023-03-13T01:31:22.457Z,9.64
2023-03-13T01:32:22.462Z,9.61
2023-03-13T01:33:22.395Z,9.61
2023-03-13T01:34:22.671Z,9.60
2023-03-13T01:35:22.436Z,9.61
2023-03-13T01:36:22.346Z,9.61
2023-03-13T01:37:22.334Z,9.58
2023-03-13T01:38:22.368Z,9.58
2023-03-13T01:39:22.331Z,9.57
2023-03-13T01:40:22.310Z,9.60
2023-03-13T01:41:22.313Z,9.57
2023-03-13T01:42:22.321Z,9.57
2023-03-13T01:43:29.342Z,9.56
2023-03-13T01:44:22.320Z,9.53
2023-03-13T01:45:22.269Z,9.53
2023-03-13T01:46:22.554Z,9.53
2023-03-13T01:47:22.229Z,9.56
2023-03-13T01:48:22.215Z,9.53
2023-03-13T01:49:22.221Z,9.52
2023-03-13T01:50:22.258Z,9.53
2023-03-13T01:51:22.194Z,9.52
2023-03-13T01:52:22.196Z,9.53
2023-03-13T01:53:22.455Z,9.56
2023-03-13T01:54:22.159Z,9.57
2023-03-13T01:55:22.153Z,9.56
2023-03-13T01:56:22.178Z,9.57
2023-03-13T01:57:22.133Z,9.53
2023-03-13T01:58:22.155Z,9.53
2023-03-13T01:59:22.113Z,9.52
2023-03-13T02:00:22.425Z,9.49
2023-03-13T02:01:22.167Z,9.45
2023-03-13T02:02:22.173Z,9.42
2023-03-13T02:03:22.060Z,9.42
2023-03-13T02:04:22.045Z,9.39
2023-03-13T02:05:22.049Z,9.38
2023-03-13T02:06:22.098Z,9.40
2023-03-13T02:07:22.322Z,9.39
2023-03-13T02:08:22.073Z,9.35
2023-03-13T02:09:22.005Z,9.35
2023-03-13T02:10:21.993Z,9.38
2023-03-13T02:11:21.977Z,9.40
2023-03-13T02:12:21.967Z,9.38
2023-03-13T02:13:21.958Z,9.38
2023-03-13T02:14:22.526Z,9.38
2023-03-13T02:15:21.952Z,9.40
2023-03-13T02:16:21.995Z,9.43
2023-03-13T02:17:21.915Z,9.42
2023-03-13T02:18:21.924Z,9.45
2023-03-13T02:19:21.942Z,9.46
2023-03-13T02:20:21.917Z,9.43
2023-03-13T02:21:22.148Z,9.39
2023-03-13T02:22:21.895Z,9.38
2023-03-13T02:23:21.857Z,9.34
2023-03-13T02:24:21.850Z,9.31
2023-03-13T02:25:21.837Z,9.28
2023-03-13T02:26:21.882Z,9.28
2023-03-13T02:27:21.817Z,9.27
2023-03-13T02:28:22.105Z,9.25
2023-03-13T02:29:21.791Z,9.27
2023-03-13T02:30:21.781Z,9.25
2023-03-13T02:31:21.928Z,9.25
2023-03-13T02:32:21.888Z,9.23
2023-03-13T02:33:21.747Z,9.21
2023-03-13T02:34:21.757Z,9.20
2023-03-13T02:35:22.057Z,9.20
2023-03-13T02:36:21.741Z,9.18
2023-03-13T02:37:21.711Z,9.16
2023-03-13T02:38:21.734Z,9.16
2023-03-13T02:39:21.688Z,9.15
2023-03-13T02:40:21.709Z,9.13
2023-03-13T02:41:21.685Z,9.13
2023-03-13T02:42:21.947Z,9.13
2023-03-13T02:43:21.653Z,9.13
2023-03-13T02:44:21.692Z,9.15
2023-03-13T02:45:21.629Z,9.13
2023-03-13T02:46:21.699Z,9.16
2023-03-13T02:47:21.612Z,9.16
2023-03-13T02:48:21.606Z,9.16
2023-03-13T02:49:21.879Z,9.15
2023-03-13T02:50:21.633Z,9.13
2023-03-13T02:51:21.589Z,9.16
2023-03-13T02:52:21.572Z,9.16
2023-03-13T02:53:21.563Z,9.18
2023-03-13T02:54:21.541Z,9.20
2023-03-13T02:55:21.537Z,9.18
2023-03-13T02:56:21.570Z,9.16
2023-03-13T02:57:21.525Z,9.18
2023-03-13T02:58:21.504Z,9.20
2023-03-13T02:59:21.488Z,9.21
2023-03-13T03:00:21.491Z,9.23
2023-03-13T03:01:21.467Z,9.24
2023-03-13T03:02:21.791Z,9.25
2023-03-13T03:03:21.443Z,9.28
2023-03-13T03:04:21.514Z,9.27
2023-03-13T03:05:21.421Z,9.30
2023-03-13T03:06:21.418Z,9.30
2023-03-13T03:07:21.422Z,9.31
2023-03-13T03:08:21.448Z,9.31
2023-03-13T03:09:21.703Z,9.31
2023-03-13T03:10:21.375Z,9.31
2023-03-13T03:11:21.396Z,9.31
2023-03-13T03:12:21.366Z,9.34
2023-03-13T03:13:21.344Z,9.35
2023-03-13T03:14:21.433Z,9.35
2023-03-13T03:15:21.331Z,9.32
2023-03-13T03:16:21.640Z,9.35
2023-03-13T03:17:21.301Z,9.35
2023-03-13T03:18:21.301Z,9.35
2023-03-13T03:19:21.289Z,9.35
2023-03-13T03:20:21.343Z,9.35
2023-03-13T03:21:21.270Z,9.35
2023-03-13T03:22:21.256Z,9.35
2023-03-13T03:23:21.514Z,9.35
2023-03-13T03:24:21.234Z,9.35
2023-03-13T03:25:21.214Z,9.35
2023-03-13T03:26:21.247Z,9.39
2023-03-13T03:27:21.191Z,9.39
2023-03-13T03:28:21.182Z,9.39
2023-03-13T03:29:21.178Z,9.40
2023-03-13T03:30:21.455Z,9.40
2023-03-13T03:31:21.167Z,9.40
2023-03-13T03:32:21.253Z,9.42
2023-03-13T03:33:21.128Z,9.42
2023-03-13T03:34:21.136Z,9.40
2023-03-13T03:35:21.097Z,9.40
2023-03-13T03:36:21.110Z,9.40
2023-03-13T03:37:21.093Z,9.42
2023-03-13T03:38:21.115Z,9.40
2023-03-13T03:39:21.065Z,9.40
2023-03-13T03:40:21.064Z,9.43
2023-03-13T03:41:21.051Z,9.42
2023-03-13T03:42:21.318Z,9.43
2023-03-13T03:43:21.018Z,9.45
2023-03-13T03:44:21.068Z,9.45
2023-03-13T03:45:21.000Z,9.45
2023-03-13T03:46:21.089Z,9.46
2023-03-13T03:47:21.029Z,9.46
2023-03-13T03:48:20.975Z,9.48
2023-03-13T03:49:20.954Z,9.48
2023-03-13T03:50:21.019Z,9.50
2023-03-13T03:51:20.941Z,9.52
2023-03-13T03:52:20.925Z,9.56
2023-03-13T03:53:20.919Z,9.56
2023-03-13T03:54:22.207Z,9.57
2023-03-13T03:55:20.896Z,9.58
2023-03-13T03:56:20.940Z,9.60
2023-03-13T03:57:20.886Z,9.60
2023-03-13T03:58:20.896Z,9.64
2023-03-13T03:59:20.865Z,9.63
2023-03-13T04:00:20.856Z,9.64
2023-03-13T04:01:21.121Z,9.64
2023-03-13T04:02:20.940Z,9.64
2023-03-13T04:03:20.884Z,9.66
2023-03-13T04:04:20.831Z,9.68
2023-03-13T04:05:20.795Z,9.68
2023-03-13T04:06:20.796Z,9.70
2023-03-13T04:07:20.783Z,9.73
2023-03-13T04:08:21.105Z,9.70
2023-03-13T04:09:20.747Z,9.75
2023-03-13T04:10:20.760Z,9.75
2023-03-13T04:11:20.741Z,9.73
2023-03-13T04:12:20.737Z,9.78
2023-03-13T04:13:20.730Z,9.78
2023-03-13T04:14:21.581Z,9.78
2023-03-13T04:15:20.985Z,9.78
2023-03-13T04:16:20.781Z,9.79
2023-03-13T04:17:20.684Z,9.81
2023-03-13T04:18:20.668Z,9.79
2023-03-13T04:19:20.661Z,9.82
2023-03-13T04:20:20.702Z,9.85
2023-03-13T04:21:20.651Z,9.86
2023-03-13T04:22:20.918Z,9.86
2023-03-13T04:23:20.671Z,9.88
2023-03-13T04:24:20.612Z,9.88
2023-03-13T04:25:20.614Z,9.91
2023-03-13T04:26:20.651Z,9.91
2023-03-13T04:27:20.596Z,9.93
2023-03-13T04:28:20.572Z,9.91
2023-03-13T04:29:20.865Z,9.96
2023-03-13T04:30:20.548Z,9.99
2023-03-13T04:31:20.614Z,10.03
2023-03-13T04:32:20.617Z,10.04
2023-03-13T04:33:20.510Z,10.07
2023-03-13T04:34:20.530Z,10.06
2023-03-13T04:35:20.557Z,10.06
2023-03-13T04:36:21.592Z,10.06
2023-03-13T04:37:20.469Z,10.07
2023-03-13T04:38:20.491Z,10.09
2023-03-13T04:39:20.455Z,10.07
2023-03-13T04:40:20.442Z,10.09
2023-03-13T04:41:20.428Z,10.09
2023-03-13T04:42:20.419Z,10.09
2023-03-13T04:43:20.720Z,10.12
2023-03-13T04:44:20.445Z,10.14
2023-03-13T04:45:20.391Z,10.15
2023-03-13T04:46:20.454Z,10.15
2023-03-13T04:47:20.367Z,10.17
2023-03-13T04:48:20.358Z,10.15
2023-03-13T04:49:20.339Z,10.18
2023-03-13T04:50:20.689Z,10.18
2023-03-13T04:51:20.323Z,10.19
2023-03-13T04:52:20.350Z,10.21
2023-03-13T04:53:20.310Z,10.21
2023-03-13T04:54:20.298Z,10.21
2023-03-13T04:55:20.290Z,10.24
2023-03-13T04:56:24.694Z,10.25
2023-03-13T04:57:20.277Z,10.25
2023-03-13T04:58:20.251Z,10.25
2023-03-13T04:59:20.254Z,10.26
2023-03-13T05:00:20.247Z,10.28
2023-03-13T05:01:20.267Z,10.26
2023-03-13T05:02:20.258Z,10.30
2023-03-13T05:03:20.467Z,10.28
2023-03-13T05:04:20.207Z,10.32
2023-03-13T05:05:20.255Z,10.32
2023-03-13T05:06:20.186Z,10.33
2023-03-13T05:07:20.152Z,10.36
2023-03-13T05:08:20.208Z,10.34
2023-03-13T05:09:20.145Z,10.39
2023-03-13T05:10:20.400Z,10.39
2023-03-13T05:11:20.109Z,10.40
2023-03-13T05:12:20.104Z,10.43
2023-03-13T05:13:20.103Z,10.43
2023-03-13T05:14:20.126Z,10.46
2023-03-13T05:15:20.077Z,10.46
2023-03-13T05:16:20.152Z,10.51
2023-03-13T05:17:20.323Z,10.53
2023-03-13T05:18:20.044Z,10.53
2023-03-13T05:19:20.039Z,10.55
2023-03-13T05:20:20.092Z,10.56
2023-03-13T05:21:20.027Z,10.58
2023-03-13T05:22:20.000Z,10.58
2023-03-13T05:23:20.013Z,10.60
2023-03-13T05:24:20.326Z,10.60
2023-03-13T05:25:19.992Z,10.60
2023-03-13T05:26:20.008Z,10.65
2023-03-13T05:27:19.949Z,10.66
2023-03-13T05:28:19.948Z,10.66
2023-03-13T05:29:19.918Z,10.66
2023-03-13T05:30:19.918Z,10.70
2023-03-13T05:31:20.223Z,10.74
2023-03-13T05:32:19.963Z,10.73
2023-03-13T05:33:19.878Z,10.77
2023-03-13T05:34:19.876Z,10.78
2023-03-13T05:35:19.870Z,10.80
2023-03-13T05:36:19.872Z,10.81
2023-03-13T05:37:19.841Z,10.81
2023-03-13T05:38:19.881Z,10.83
2023-03-13T05:39:20.110Z,10.88
2023-03-13T05:40:19.825Z,10.89
2023-03-13T05:41:19.792Z,10.88
2023-03-13T05:42:19.806Z,10.89
2023-03-13T05:43:19.778Z,10.91
2023-03-13T05:44:19.799Z,10.94
2023-03-13T05:45:19.760Z,10.96
2023-03-13T05:46:19.853Z,10.96
2023-03-13T05:47:19.734Z,10.95
2023-03-13T05:48:19.721Z,10.95
2023-03-13T05:49:19.725Z,10.96
2023-03-13T05:50:19.740Z,10.95
2023-03-13T05:51:19.702Z,10.96
2023-03-13T05:52:19.977Z,10.99
2023-03-13T05:53:19.670Z,10.99
2023-03-13T05:54:19.663Z,11.01
2023-03-13T05:55:19.659Z,11.03
2023-03-13T05:56:19.701Z,11.03
2023-03-13T05:57:19.619Z,11.06
2023-03-13T05:58:19.615Z,11.06
2023-03-13T05:59:19.890Z,11.07
2023-03-13T06:00:19.624Z,11.10
2023-03-13T06:01:19.612Z,11.13
2023-03-13T06:02:19.632Z,11.14
2023-03-13T06:03:19.579Z,11.16
2023-03-13T06:04:19.651Z,11.14
2023-03-13T06:05:19.540Z,11.14
2023-03-13T06:06:19.864Z,11.17
2023-03-13T06:07:19.529Z,11.21
2023-03-13T06:08:21.715Z,11.25
2023-03-13T06:09:19.546Z,11.27
2023-03-13T06:10:19.502Z,11.28
2023-03-13T06:11:19.481Z,11.27
2023-03-13T06:12:19.471Z,11.29
2023-03-13T06:13:20.506Z,11.31
2023-03-13T06:14:19.489Z,11.32
2023-03-13T06:15:19.445Z,11.34
2023-03-13T06:16:19.507Z,11.34
2023-03-13T06:17:19.410Z,11.36
2023-03-13T06:18:19.412Z,11.36
2023-03-13T06:19:19.422Z,11.35
2023-03-13T06:20:19.758Z,11.36
2023-03-13T06:21:19.384Z,11.39
2023-03-13T06:22:19.356Z,11.41
2023-03-13T06:23:19.336Z,11.43
2023-03-13T06:24:19.355Z,11.44
2023-03-13T06:25:19.405Z,11.49
2023-03-13T06:26:19.406Z,11.50
2023-03-13T06:27:19.615Z,11.50
2023-03-13T06:28:19.304Z,11.52
2023-03-13T06:29:19.299Z,11.52
2023-03-13T06:30:19.284Z,11.53
2023-03-13T06:31:19.319Z,11.56
2023-03-13T06:32:19.427Z,11.57
2023-03-13T06:33:19.313Z,11.59
2023-03-13T06:34:19.535Z,11.62
2023-03-13T06:35:19.245Z,11.64
2023-03-13T06:36:19.316Z,11.67
2023-03-13T06:37:19.207Z,11.71
2023-03-13T06:38:19.233Z,11.74
2023-03-13T06:39:19.237Z,11.75
2023-03-13T06:40:19.199Z,11.80
2023-03-13T06:41:19.458Z,11.82
2023-03-13T06:42:19.157Z,11.82
2023-03-13T06:43:19.179Z,11.83
2023-03-13T06:44:19.200Z,11.83
2023-03-13T06:45:19.119Z,11.87
2023-03-13T06:46:19.260Z,11.90
2023-03-13T06:47:19.146Z,11.96
2023-03-13T06:48:19.394Z,11.97
2023-03-13T06:49:19.077Z,11.99
2023-03-13T06:50:19.104Z,11.96
2023-03-13T06:51:19.082Z,11.97
2023-03-13T06:52:20.281Z,11.99
2023-03-13T06:53:19.077Z,11.96
2023-03-13T06:54:19.042Z,11.94
2023-03-13T06:55:19.312Z,11.99
2023-03-13T06:56:19.041Z,12.02
2023-03-13T06:57:19.030Z,12.05
2023-03-13T06:58:31.410Z,12.05
2023-03-13T06:59:19.009Z,12.06
2023-03-13T07:00:18.989Z,12.08
2023-03-13T07:01:19.054Z,12.08
2023-03-13T07:02:19.286Z,12.09
2023-03-13T07:03:18.945Z,12.13
2023-03-13T07:04:19.006Z,12.21
2023-03-13T07:05:18.916Z,12.29
2023-03-13T07:06:18.910Z,12.27
2023-03-13T07:07:29.648Z,12.26
2023-03-13T07:08:18.976Z,12.29
2023-03-13T07:09:19.212Z,12.30
2023-03-13T07:10:18.873Z,12.31
2023-03-13T07:11:18.853Z,12.34
2023-03-13T07:12:18.858Z,12.42
2023-03-13T07:13:18.833Z,12.46
2023-03-13T07:14:18.874Z,12.49
2023-03-13T07:15:18.845Z,12.49
2023-03-13T07:16:19.165Z,12.51
2023-03-13T07:17:18.813Z,12.54
2023-03-13T07:18:18.904Z,12.54
2023-03-13T07:19:18.783Z,12.59
2023-03-13T07:20:18.878Z,12.57
2023-03-13T07:21:18.791Z,12.57
2023-03-13T07:22:18.728Z,12.60
2023-03-13T07:23:19.042Z,12.59
2023-03-13T07:24:18.823Z,12.63
2023-03-13T07:25:18.721Z,12.64
2023-03-13T07:26:18.827Z,12.66
2023-03-13T07:27:18.777Z,12.66
2023-03-13T07:28:18.753Z,12.66
2023-03-13T07:29:18.687Z,12.67
2023-03-13T07:30:18.754Z,12.71
2023-03-13T07:31:18.714Z,12.71
2023-03-13T07:32:18.769Z,12.70
2023-03-13T07:33:18.670Z,12.74
2023-03-13T07:34:18.661Z,12.78
2023-03-13T07:35:18.650Z,12.79
2023-03-13T07:36:18.735Z,12.78
2023-03-13T07:37:18.615Z,12.82
2023-03-13T07:38:18.667Z,12.81
2023-03-13T07:39:18.581Z,12.85
2023-03-13T07:40:18.602Z,12.89
2023-03-13T07:41:18.577Z,12.89
2023-03-13T07:42:18.595Z,12.89
2023-03-13T07:43:18.562Z,12.95
2023-03-13T07:44:18.601Z,12.97
2023-03-13T07:45:18.503Z,12.97
2023-03-13T07:46:18.632Z,12.99
2023-03-13T07:47:18.822Z,12.96
2023-03-13T07:48:18.518Z,12.96
2023-03-13T07:49:18.500Z,13.00
2023-03-13T07:50:18.679Z,13.06
2023-03-13T07:51:18.467Z,13.09
2023-03-13T07:52:18.425Z,13.12
2023-03-13T07:53:18.523Z,13.11
2023-03-13T07:54:18.692Z,13.12
2023-03-13T07:55:18.431Z,13.14
2023-03-13T07:56:18.435Z,13.14
2023-03-13T07:57:18.370Z,13.12
2023-03-13T07:58:18.413Z,13.12
2023-03-13T07:59:18.364Z,13.15
2023-03-13T08:00:18.390Z,13.18
2023-03-13T08:01:18.656Z,13.18
2023-03-13T08:02:18.486Z,13.20
2023-03-13T08:03:18.392Z,13.21
2023-03-13T08:04:18.338Z,13.21
2023-03-13T08:05:18.341Z,13.25
2023-03-13T08:06:18.330Z,13.25
2023-03-13T08:07:18.335Z,13.25
2023-03-13T08:08:18.628Z,13.29
2023-03-13T08:09:18.256Z,13.30
2023-03-13T08:10:18.251Z,13.29
2023-03-13T08:11:18.263Z,13.33
2023-03-13T08:12:18.255Z,13.33
2023-03-13T08:13:18.236Z,13.36
2023-03-13T08:14:18.299Z,13.36
2023-03-13T08:15:18.480Z,13.36
2023-03-13T08:16:18.362Z,13.32
2023-03-13T08:17:18.175Z,13.38
2023-03-13T08:18:18.146Z,13.38
2023-03-13T08:19:18.183Z,13.41
2023-03-13T08:20:18.225Z,13.38
2023-03-13T08:21:18.153Z,13.36
2023-03-13T08:22:18.434Z,13.32
2023-03-13T08:23:18.122Z,13.33
2023-03-13T08:24:18.145Z,13.32
2023-03-13T08:25:18.130Z,13.30
2023-03-13T08:26:18.162Z,13.30
2023-03-13T08:27:18.116Z,13.32
2023-03-13T08:28:18.054Z,13.33
2023-03-13T08:29:18.351Z,13.36
2023-03-13T08:30:18.069Z,13.32
2023-03-13T08:31:18.121Z,13.33
2023-03-13T08:32:18.253Z,13.36
2023-03-13T08:33:18.002Z,13.36
2023-03-13T08:34:18.006Z,13.32
2023-03-13T08:35:17.992Z,13.33
2023-03-13T08:36:18.262Z,13.36
2023-03-13T08:37:17.975Z,13.36
2023-03-13T08:38:17.989Z,13.41
2023-03-13T08:39:17.941Z,13.46
2023-03-13T08:40:17.960Z,13.47
2023-03-13T08:41:17.977Z,13.51
2023-03-13T08:42:17.949Z,13.54
2023-03-13T08:43:18.214Z,13.54
2023-03-13T08:44:17.946Z,13.51
2023-03-13T08:45:17.877Z,13.54
2023-03-13T08:46:19.722Z,13.52
2023-03-13T08:47:17.848Z,13.54
2023-03-13T08:48:17.874Z,13.56
2023-03-13T08:49:17.984Z,13.63
2023-03-13T08:50:17.855Z,13.63
2023-03-13T08:51:17.834Z,13.65
2023-03-13T08:52:17.825Z,13.65
2023-03-13T08:53:17.818Z,13.65
2023-03-13T08:54:17.831Z,13.62
2023-03-13T08:55:17.903Z,13.62
2023-03-13T08:56:18.129Z,13.61
2023-03-13T08:57:17.756Z,13.62
2023-03-13T08:58:17.793Z,13.67
2023-03-13T08:59:17.751Z,13.69
2023-03-13T09:00:17.720Z,13.65
2023-03-13T09:01:17.776Z,13.69
2023-03-13T09:02:17.784Z,13.69
2023-03-13T09:03:18.150Z,13.70
2023-03-13T09:04:17.757Z,13.70
2023-03-13T09:05:17.794Z,13.70
2023-03-13T09:06:17.669Z,13.69
2023-03-13T09:07:17.883Z,13.69
2023-03-13T09:08:17.790Z,13.65
2023-03-13T09:09:17.702Z,13.62
2023-03-13T09:10:17.625Z,13.63
2023-03-13T09:11:17.651Z,13.67
2023-03-13T09:12:29.938Z,13.65
2023-03-13T09:13:17.644Z,13.69
2023-03-13T09:14:17.710Z,13.69
2023-03-13T09:15:17.651Z,13.77
2023-03-13T09:16:17.999Z,13.80
2023-03-13T09:17:17.618Z,13.83
2023-03-13T09:18:17.611Z,13.88
2023-03-13T09:19:17.579Z,13.91
2023-03-13T09:20:17.622Z,13.92
2023-03-13T09:21:17.553Z,13.99
2023-03-13T09:22:17.568Z,14.02
2023-03-13T09:23:17.791Z,14.09
2023-03-13T09:24:17.583Z,14.14
2023-03-13T09:25:17.518Z,14.20
2023-03-13T09:26:17.643Z,14.27
2023-03-13T09:27:17.506Z,14.39
2023-03-13T09:28:17.450Z,14.44
2023-03-13T09:29:17.494Z,14.50
2023-03-13T09:30:17.457Z,14.57
2023-03-13T09:31:17.566Z,14.68
2023-03-13T09:32:17.506Z,14.81
2023-03-13T09:33:17.470Z,14.91
2023-03-13T09:34:17.395Z,14.99
2023-03-13T09:35:17.685Z,15.39
2023-03-13T09:36:19.247Z,15.64
2023-03-13T09:37:17.336Z,15.57
2023-03-13T09:38:17.405Z,15.57
2023-03-13T09:39:17.452Z,15.52
2023-03-13T09:40:17.316Z,15.41
2023-03-13T09:41:17.320Z,15.31
2023-03-13T09:42:17.285Z,15.24
2023-03-13T09:43:17.370Z,15.23
2023-03-13T09:44:17.378Z,15.26
2023-03-13T09:45:17.357Z,15.24
2023-03-13T09:46:17.356Z,15.27
2023-03-13T09:47:17.279Z,15.23
2023-03-13T09:48:17.257Z,15.20
2023-03-13T09:49:18.517Z,15.17
2023-03-13T09:50:17.265Z,15.12
2023-03-13T09:51:17.203Z,15.08
2023-03-13T09:52:17.193Z,15.09
2023-03-13T09:53:17.468Z,15.12
2023-03-13T09:54:17.267Z,15.15
2023-03-13T09:55:17.196Z,15.17
2023-03-13T09:56:17.296Z,15.21
2023-03-13T09:57:17.170Z,15.27
2023-03-13T09:58:17.108Z,15.38
2023-03-13T09:59:17.102Z,15.51
2023-03-13T10:00:17.426Z,15.64
2023-03-13T10:01:17.325Z,15.67
2023-03-13T10:02:17.172Z,15.75
2023-03-13T10:03:17.091Z,15.86
2023-03-13T10:04:17.141Z,16.18
2023-03-13T10:05:17.106Z,16.25
2023-03-13T10:06:17.073Z,16.37
2023-03-13T10:07:17.327Z,16.49
2023-03-13T10:08:17.108Z,16.42
2023-03-13T10:09:17.152Z,16.15
2023-03-13T10:10:17.001Z,15.96
2023-03-13T10:11:17.083Z,15.76
2023-03-13T10:12:16.984Z,15.68
2023-03-13T10:13:16.976Z,15.60
2023-03-13T10:14:17.386Z,15.54
2023-03-13T10:15:16.957Z,15.45
2023-03-13T10:16:19.210Z,15.39
2023-03-13T10:17:16.929Z,15.35
2023-03-13T10:18:17.013Z,15.41
2023-03-13T10:19:17.006Z,15.49
2023-03-13T10:20:17.006Z,15.57
2023-03-13T10:21:16.933Z,15.64
2023-03-13T10:22:16.922Z,15.72
2023-03-13T10:23:16.880Z,15.74
2023-03-13T10:24:16.827Z,15.82
2023-03-13T10:25:16.890Z,15.89
2023-03-13T10:26:17.010Z,16.34
2023-03-13T10:27:17.365Z,16.45
2023-03-13T10:28:17.032Z,16.71
2023-03-13T10:29:16.861Z,16.63
2023-03-13T10:30:16.870Z,16.73
2023-03-13T10:31:16.951Z,16.68
2023-03-13T10:32:16.900Z,16.49
2023-03-13T10:33:16.774Z,16.95
2023-03-13T10:34:17.266Z,16.89
2023-03-13T10:35:16.766Z,16.59
2023-03-13T10:36:16.858Z,16.40
2023-03-13T10:37:16.791Z,16.45
2023-03-13T10:38:16.825Z,16.89
2023-03-13T10:39:16.777Z,16.88
2023-03-13T10:40:16.691Z,16.92
2023-03-13T10:41:16.974Z,16.96
2023-03-13T10:42:16.751Z,16.85
2023-03-13T10:43:16.707Z,17.25
2023-03-13T10:44:16.717Z,17.36
2023-03-13T10:45:16.703Z,17.44
2023-03-13T10:46:16.706Z,17.63
2023-03-13T10:47:16.632Z,17.89
2023-03-13T10:48:16.943Z,17.88
2023-03-13T10:49:16.692Z,17.82
2023-03-13T10:50:16.607Z,17.64
2023-03-13T10:51:16.642Z,17.32
2023-03-13T10:52:16.572Z,17.36
2023-03-13T10:53:16.602Z,17.47
2023-03-13T10:54:16.654Z,17.63
2023-03-13T10:55:16.838Z,17.88
2023-03-13T10:56:16.621Z,17.67
2023-03-13T10:57:16.549Z,17.29
2023-03-13T10:58:16.525Z,17.15
2023-03-13T10:59:16.609Z,17.10
2023-03-13T11:00:16.557Z,17.43
2023-03-13T11:01:16.450Z,17.29
2023-03-13T11:02:16.842Z,17.06
2023-03-13T11:03:16.593Z,17.22
2023-03-13T11:04:16.425Z,17.47
2023-03-13T11:05:16.434Z,17.87
2023-03-13T11:06:16.549Z,18.15
2023-03-13T11:07:16.389Z,18.22
2023-03-13T11:08:16.532Z,18.07
2023-03-13T11:09:16.722Z,17.97
2023-03-13T11:10:16.381Z,18.00
2023-03-13T11:11:16.415Z,17.62
2023-03-13T11:12:16.360Z,17.33
2023-03-13T11:13:19.915Z,17.06
2023-03-13T11:14:16.592Z,16.89
2023-03-13T11:15:16.425Z,17.06
2023-03-13T11:16:16.639Z,17.48
2023-03-13T11:17:16.408Z,17.53
2023-03-13T11:18:16.345Z,17.59
2023-03-13T11:19:16.338Z,17.91
2023-03-13T11:20:16.420Z,18.02
2023-03-13T11:21:18.549Z,17.76
2023-03-13T11:22:16.323Z,17.85
2023-03-13T11:23:16.263Z,17.69
2023-03-13T11:24:16.227Z,17.48
2023-03-13T11:25:17.764Z,17.73
2023-03-13T11:26:16.357Z,17.70
2023-03-13T11:27:16.208Z,17.48
2023-03-13T11:28:16.466Z,17.30
2023-03-13T11:29:16.204Z,17.17
2023-03-13T11:30:16.217Z,17.35
2023-03-13T11:31:16.204Z,17.62
2023-03-13T11:32:16.141Z,17.50
2023-03-13T11:33:16.211Z,17.29
2023-03-13T11:34:16.155Z,17.29
2023-03-13T11:35:16.164Z,17.79
2023-03-13T11:36:16.258Z,17.91
2023-03-13T11:37:16.142Z,18.03
2023-03-13T11:38:16.131Z,18.36
2023-03-13T11:39:16.054Z,18.61
2023-03-13T11:40:16.426Z,18.44
2023-03-13T11:41:16.133Z,18.27
2023-03-13T11:42:16.095Z,17.99
2023-03-13T11:43:25.045Z,18.06
2023-03-13T11:44:16.243Z,18.25
2023-03-13T11:45:16.067Z,18.00
2023-03-13T11:46:16.158Z,18.27
2023-03-13T11:47:16.239Z,18.52
2023-03-13T11:48:16.118Z,18.61
2023-03-13T11:49:15.939Z,18.74
2023-03-13T11:50:16.123Z,18.39
2023-03-13T11:51:15.996Z,18.39
2023-03-13T11:52:15.976Z,17.97
2023-03-13T11:53:15.927Z,17.74
2023-03-13T11:54:16.288Z,17.85
2023-03-13T11:55:15.986Z,17.71
2023-03-13T11:56:15.995Z,17.82
2023-03-13T11:57:15.870Z,18.18
2023-03-13T11:58:15.839Z,18.37
2023-03-13T11:59:15.877Z,18.46
2023-03-13T12:00:15.968Z,18.77
2023-03-13T12:01:16.214Z,18.91
2023-03-13T12:02:16.025Z,18.90
2023-03-13T12:03:15.904Z,18.37
2023-03-13T12:04:15.816Z,17.99
2023-03-13T12:05:15.940Z,17.82
2023-03-13T12:06:27.247Z,18.04
2023-03-13T12:07:15.866Z,17.71
2023-03-13T12:08:16.110Z,17.54
2023-03-13T12:09:15.780Z,17.64
2023-03-13T12:10:15.820Z,17.59
2023-03-13T12:11:15.768Z,17.51
2023-03-13T12:12:15.728Z,17.44
2023-03-13T12:13:15.803Z,17.43
2023-03-13T12:14:15.814Z,17.35
2023-03-13T12:15:18.898Z,17.70
2023-03-13T12:16:15.718Z,17.78
2023-03-13T12:17:15.824Z,17.66
2023-03-13T12:18:15.703Z,18.31
2023-03-13T12:19:15.722Z,18.70
2023-03-13T12:20:15.852Z,18.86
2023-03-13T12:21:15.687Z,18.83
2023-03-13T12:22:15.627Z,18.84
2023-03-13T12:23:15.615Z,19.21
2023-03-13T12:24:15.619Z,19.18
2023-03-13T12:25:15.702Z,19.36
2023-03-13T12:26:15.707Z,18.90
2023-03-13T12:27:15.599Z,18.73
2023-03-13T12:28:16.022Z,18.47
2023-03-13T12:29:15.529Z,18.43
2023-03-13T12:30:15.624Z,18.55
2023-03-13T12:31:15.617Z,18.84
2023-03-13T12:32:15.553Z,19.24
2023-03-13T12:33:15.567Z,18.98
2023-03-13T12:34:15.516Z,18.64
2023-03-13T12:35:15.499Z,18.90
2023-03-13T12:36:15.500Z,19.05
2023-03-13T12:37:15.520Z,18.92
2023-03-13T12:38:15.630Z,18.67
2023-03-13T12:39:15.464Z,18.62
2023-03-13T12:40:15.520Z,18.64
2023-03-13T12:41:15.736Z,18.67
2023-03-13T12:42:15.559Z,18.74
2023-03-13T12:43:15.428Z,18.87
2023-03-13T12:44:15.514Z,19.13
2023-03-13T12:45:15.440Z,19.32
2023-03-13T12:46:15.421Z,19.47
2023-03-13T12:47:15.436Z,19.50
2023-03-13T12:48:15.389Z,19.42
2023-03-13T12:49:15.395Z,19.60
2023-03-13T12:50:15.507Z,19.53
2023-03-13T12:51:15.335Z,19.55
2023-03-13T12:52:15.300Z,19.57
2023-03-13T12:53:15.290Z,19.79
2023-03-13T12:54:15.393Z,20.06
2023-03-13T12:55:15.272Z,19.54
2023-03-13T12:56:15.322Z,19.11
2023-03-13T12:57:15.268Z,19.10
2023-03-13T12:58:15.229Z,19.10
2023-03-13T12:59:15.230Z,19.08